Pagina principale
METAR-TAF:

METAR-TAF

Aeroporti :

Jendouba, Tunisia

latitudine: 36-29N, longitudine: 008-48E, altezza: 143 m

Osservazione

Il bollettino è stato emesso 1 ora e 2 minuti fa, alle 20:00 UTC
Vento 8 kt da nord-ovest, variando fra ovest e nord
Temperature 29°C
Umidità 55%
Pressione 1016 hPa
Visibilità: 8000 m
Nubi sparse ad un'altezza di 2000 ft
Poco nuvoloso ad un'altezza di 2300 ft, Cumulonembo.
Nubi sparse ad un'altezza di 3000 ft
temporale

METAR: DTTN 162000Z 32008KT 260V350 8000 TS SCT020 FEW023CB SCT030 29/19 Q1016

Ora: 22:02 (21:02 UTC)


TAF: mancante

Osservazioni e previsioni meteorologiche di più di 4000 aeroporti (messaggi METAR e TAF).

Le stazioni disponibili sono rappresentate dai dischi gialli e rossi sulla carta.

Puntare il mouse per vedere il nome della stazione.

Clicca sopra per visualizzare le osservazioni e previsioni meteorologiche.

Per cambiare la mappa : fare clic sui pulsanti verdi con una croce nera per ingrandire, il pulsante verde con un trattino per diminuire, o sulla freccia verde per le mappe adiacenti.


METAR-TAF: